Time;durP1;ratioP1;P1;durP2;ratioP2;P2;SDS_P1;SDS_P2;PMS_P1;PMS_P2;Temp;Humidity;BMP_temperature;BMP_pressure;BME280_temperature;BME280_humidity;BME280_pressure;Samples;Min_cycle;Max_cycle;Signal;HPM_P1;HPM_P2
2022/05/09 00:02:40;;;;;;;18.10;9.63;;;;;;;10.96;71.34;101951.83;5161617;56;1141061;-75
2022/05/09 00:07:46;;;;;;;11.97;8.77;;;;;;;10.91;71.53;101949.42;5161779;56;1141408;-75
2022/05/09 00:12:52;;;;;;;10.27;7.53;;;;;;;10.87;71.43;101949.20;5175190;56;1140964;-75
2022/05/09 00:17:58;;;;;;;11.07;8.20;;;;;;;10.84;71.63;101957.81;5248166;56;1141194;-75
2022/05/09 00:23:03;;;;;;;9.77;7.97;;;;;;;10.77;71.51;101956.43;5247986;56;1141085;-75
2022/05/09 00:28:09;;;;;;;13.60;8.27;;;;;;;10.77;71.51;101956.43;5228432;56;1139197;-75
2022/05/09 00:33:15;;;;;;;12.27;7.27;;;;;;;10.69;71.30;101966.59;5248001;56;1141089;-74
2022/05/09 00:38:21;;;;;;;13.57;7.43;;;;;;;10.56;71.69;101963.28;5248024;56;1141374;-74
2022/05/09 00:43:37;;;;;;;12.13;8.27;;;;;;;10.49;71.45;101963.24;5247969;56;1141263;-74
2022/05/09 00:48:42;;;;;;;13.43;7.70;;;;;;;10.51;72.04;101971.09;5248036;56;1141194;-74
2022/05/09 00:53:50;;;;;;;9.67;6.87;;;;;;;10.51;71.66;101979.03;5247955;56;1141352;-74
2022/05/09 00:58:59;;;;;;;11.00;7.30;;;;;;;10.45;71.63;101982.85;5216172;56;1138997;-74
2022/05/09 01:04:16;;;;;;;9.70;6.93;;;;;;;10.36;71.55;101979.86;5161360;57;1141050;-74
2022/05/09 01:09:22;;;;;;;15.87;7.97;;;;;;;10.21;71.63;101985.02;5161519;57;1139370;-75
2022/05/09 01:14:34;;;;;;;12.73;6.77;;;;;;;10.17;71.95;101986.08;5203070;56;1141062;-74
2022/05/09 01:19:47;;;;;;;14.10;7.13;;;;;;;10.16;71.72;101986.16;5248323;56;1141097;-74
2022/05/09 01:24:57;;;;;;;12.07;6.70;;;;;;;9.90;71.50;101975.63;5247826;56;1141341;-74
2022/05/09 01:30:25;;;;;;;12.20;6.73;;;;;;;9.90;71.50;101975.63;5209573;56;1139267;-74
2022/05/09 01:35:53;;;;;;;11.30;6.03;;;;;;;9.91;71.75;101979.98;5161075;57;1139024;-74
2022/05/09 01:40:59;;;;;;;8.67;5.17;;;;;;;9.93;71.76;101985.19;5161004;56;1139025;-74
2022/05/09 01:46:10;;;;;;;8.57;5.30;;;;;;;9.88;71.53;101988.06;5161134;57;1136994;-74
2022/05/09 01:51:17;;;;;;;6.37;4.83;;;;;;;9.72;71.52;101984.48;5161544;57;1134929;-74
2022/05/09 01:56:27;;;;;;;8.87;5.30;;;;;;;9.62;71.74;101989.39;5161539;57;1135128;-74
2022/05/09 02:01:43;;;;;;;6.83;4.20;;;;;;;9.45;71.51;101994.66;5241492;56;1134877;-75
2022/05/09 02:06:49;;;;;;;7.00;4.63;;;;;;;9.36;71.66;101991.98;5235714;56;1134790;-74
2022/05/09 02:11:55;;;;;;;10.27;4.40;;;;;;;9.25;71.71;101990.34;5238131;56;1134416;-74
2022/05/09 02:17:02;;;;;;;8.87;3.87;;;;;;;9.16;71.83;102004.85;5247240;56;1135106;-74
2022/05/09 02:22:08;;;;;;;12.70;3.80;;;;;;;9.09;71.78;101992.01;5247462;56;1134886;-74
2022/05/09 02:27:16;;;;;;;11.40;4.87;;;;;;;9.07;71.92;101996.03;5247313;56;1136879;-74
2022/05/09 02:32:22;;;;;;;13.23;4.30;;;;;;;9.07;71.86;102003.95;5168840;56;1136986;-74
2022/05/09 02:37:27;;;;;;;8.23;3.70;;;;;;;9.05;71.73;102004.48;5210941;56;1137181;-74
2022/05/09 02:42:34;;;;;;;7.65;4.53;;;;;;;8.98;71.47;102018.92;5173586;56;1134995;-74
2022/05/09 02:47:45;;;;;;;8.83;3.77;;;;;;;8.88;71.65;102022.89;5160707;57;1135060;-75
2022/05/09 02:52:48;;;;;;;5.40;3.53;;;;;;;8.83;71.49;102018.77;5159750;57;1133193;-74
2022/05/09 02:57:54;;;;;;;8.27;3.43;;;;;;;8.64;71.52;102018.75;5160355;57;1130601;-74
2022/05/09 03:08:17;;;;;;;7.47;3.30;;;;;;;8.38;71.86;102019.48;5076650;57;1138961;-74
2022/05/09 03:13:24;;;;;;;12.53;3.72;;;;;;;8.32;72.11;102020.20;5184461;56;1137011;-74
2022/05/09 03:18:31;;;;;;;13.17;3.73;;;;;;;8.23;72.54;102016.17;5248022;56;1138988;-75
2022/05/09 03:23:37;;;;;;;13.73;4.23;;;;;;;8.21;72.58;102023.75;5248180;56;1137069;-74
2022/05/09 03:28:43;;;;;;;8.73;3.13;;;;;;;8.16;72.44;102041.52;5233473;56;1137043;-74
2022/05/09 03:33:49;;;;;;;8.30;2.90;;;;;;;8.09;72.96;102030.41;5213456;56;1134796;-75
2022/05/09 03:38:56;;;;;;;11.73;2.83;;;;;;;8.08;72.75;102032.65;5237780;56;1134822;-74
2022/05/09 03:44:02;;;;;;;9.43;4.05;;;;;;;8.14;72.70;102044.22;5161062;57;1139075;-74
2022/05/09 03:49:08;;;;;;;7.83;3.20;;;;;;;8.19;72.65;102046.67;5161408;57;1136800;-74
2022/05/09 03:54:14;;;;;;;8.03;2.93;;;;;;;8.21;72.59;102052.27;5161575;57;1136821;-74
2022/05/09 03:59:20;;;;;;;8.80;3.27;;;;;;;8.16;72.37;102045.02;5200521;56;1136918;-74
2022/05/09 04:04:26;;;;;;;14.27;3.10;;;;;;;8.10;72.59;102042.17;5247935;56;1134770;-75
2022/05/09 04:09:32;;;;;;;9.00;2.93;;;;;;;8.15;72.65;102051.67;5243450;56;1136994;-75
2022/05/09 04:20:01;;;;;;;14.25;3.05;;;;;;;8.15;72.69;102068.34;5163966;57;1134841;-73
2022/05/09 04:25:09;;;;;;;12.37;2.80;;;;;;;8.16;72.62;102072.69;5163577;57;1136825;-74
2022/05/09 04:30:15;;;;;;;8.30;3.20;;;;;;;8.16;72.32;102079.28;5123368;57;1139205;-75
2022/05/09 04:35:21;;;;;;;8.00;2.87;;;;;;;8.12;72.45;102082.50;5079165;58;1137059;-75
2022/05/09 04:40:30;;;;;;;7.53;2.63;;;;;;;8.12;72.57;102090.41;5148512;56;1134834;-74
2022/05/09 04:45:36;;;;;;;10.70;2.93;;;;;;;8.11;72.51;102091.32;5242134;56;1134833;-75
2022/05/09 04:50:44;;;;;;;9.30;3.10;;;;;;;8.15;72.44;102103.06;5155520;57;1137183;-74
2022/05/09 04:55:50;;;;;;;13.00;2.77;;;;;;;8.13;72.78;102101.80;5242133;56;1134887;-74
2022/05/09 05:00:56;;;;;;;6.57;2.73;;;;;;;8.19;72.67;102102.02;5175345;56;1137036;-74
2022/05/09 05:06:03;;;;;;;4.90;2.73;;;;;;;8.25;72.86;102103.91;5155699;57;1136938;-74
2022/05/09 05:11:09;;;;;;;16.43;3.07;;;;;;;8.31;72.80;102113.34;5155578;57;1136865;-75
2022/05/09 05:16:15;;;;;;;5.83;2.80;;;;;;;8.37;73.06;102102.59;5228167;56;1136883;-76
2022/05/09 05:21:21;;;;;;;11.70;2.70;;;;;;;8.58;73.24;102112.18;5242345;56;1134812;-76
2022/05/09 05:26:27;;;;;;;15.43;4.10;;;;;;;8.77;73.19;102114.41;5242064;56;1137123;-75
2022/05/09 05:31:33;;;;;;;7.00;2.80;;;;;;;9.01;72.94;102117.70;5178703;56;1136901;-75
2022/05/09 05:36:39;;;;;;;4.87;2.60;;;;;;;9.24;72.47;102121.09;5156354;57;1134894;-74
2022/05/09 05:41:46;;;;;;;9.97;3.30;;;;;;;9.49;72.50;102119.85;5156360;57;1134813;-75
2022/05/09 05:46:51;;;;;;;11.60;2.80;;;;;;;9.68;71.35;102113.69;5156209;57;1136927;-75
2022/05/09 05:52:02;;;;;;;7.47;2.43;;;;;;;9.85;71.53;102125.16;5156232;57;1136920;-75
2022/05/09 05:57:07;;;;;;;11.00;3.10;;;;;;;9.99;70.26;102125.80;5156601;56;1134936;-75
2022/05/09 06:02:13;;;;;;;9.73;2.60;;;;;;;10.24;71.61;102125.45;5242735;56;1137150;-75
2022/05/09 06:07:22;;;;;;;5.03;2.60;;;;;;;10.60;71.39;102125.36;5242782;56;1137043;-74
2022/05/09 06:12:28;;;;;;;11.07;2.87;;;;;;;10.91;69.25;102125.92;5242632;56;1136980;-74
2022/05/09 06:17:39;;;;;;;7.67;2.57;;;;;;;11.08;68.19;102132.50;5242700;56;1138374;-75
2022/05/09 06:22:44;;;;;;;8.60;2.80;;;;;;;11.29;67.29;102131.81;5242645;56;1136959;-74
2022/05/09 06:27:52;;;;;;;9.93;2.93;;;;;;;11.53;67.24;102129.58;5242308;56;1136884;-75
2022/05/09 06:32:58;;;;;;;5.35;2.27;;;;;;;11.81;66.94;102136.39;5156152;57;1136933;-75
2022/05/09 06:38:06;;;;;;;5.23;1.83;;;;;;;12.04;66.04;102129.78;5156009;57;1136997;-74
2022/05/09 06:43:12;;;;;;;10.47;2.10;;;;;;;12.19;64.34;102137.31;5155838;57;1136934;-74
2022/05/09 06:48:19;;;;;;;3.83;1.57;;;;;;;12.41;61.81;102133.75;5155826;57;1138968;-73
2022/05/09 06:53:27;;;;;;;8.30;2.13;;;;;;;12.57;61.85;102139.00;5155843;57;1136882;-75
2022/05/09 06:58:32;;;;;;;5.07;3.20;;;;;;;12.71;61.79;102137.69;5180934;56;1137250;-75
2022/05/09 07:03:37;;;;;;;3.77;2.30;;;;;;;12.96;61.40;102144.55;5242392;56;1136963;-75
2022/05/09 07:08:43;;;;;;;6.73;2.80;;;;;;;13.15;58.75;102136.30;5239962;56;1134866;-75
2022/05/09 07:13:49;;;;;;;4.53;2.50;;;;;;;13.33;58.61;102140.94;5228283;56;1134932;-76
2022/05/09 07:18:55;;;;;;;4.30;2.13;;;;;;;13.54;58.26;102129.42;5251250;56;1138985;-75
2022/05/09 07:24:02;;;;;;;4.20;1.95;;;;;;;13.73;56.31;102135.27;5163356;56;1138964;-74
2022/05/09 07:29:09;;;;;;;7.47;2.10;;;;;;;13.90;55.89;102136.83;5209116;56;1139010;-75
2022/05/09 07:34:14;;;;;;;3.50;1.90;;;;;;;14.14;56.71;102127.20;5250852;56;1138946;-75
2022/05/09 07:39:20;;;;;;;9.67;2.77;;;;;;;14.25;54.06;102131.80;5232666;56;1139018;-74
2022/05/09 07:44:26;;;;;;;16.63;2.23;;;;;;;14.40;54.29;102140.96;5161536;57;1138967;-74
2022/05/09 07:49:33;;;;;;;3.37;2.17;;;;;;;14.55;53.49;102139.06;5161463;57;1141093;-73
2022/05/09 07:54:39;;;;;;;9.07;3.00;;;;;;;14.73;53.66;102140.47;5161489;57;1139006;-75
2022/05/09 07:59:45;;;;;;;9.37;2.30;;;;;;;14.93;53.81;102136.90;5207526;56;1139060;-74
2022/05/09 08:04:50;;;;;;;6.90;2.73;;;;;;;15.05;53.14;102138.69;5248014;56;1139084;-75
2022/05/09 08:09:56;;;;;;;5.10;1.57;;;;;;;15.26;49.58;102138.52;5248057;56;1139015;-74
2022/05/09 08:15:03;;;;;;;3.57;1.70;;;;;;;15.41;49.91;102139.22;5248011;56;1139110;-74
2022/05/09 08:20:12;;;;;;;7.67;2.67;;;;;;;15.52;49.52;102133.95;5247983;56;1139042;-75
2022/05/09 08:25:18;;;;;;;2.97;1.83;;;;;;;15.62;47.92;102139.49;5248173;56;1139093;-74
2022/05/09 08:30:23;;;;;;;6.83;2.07;;;;;;;15.71;47.08;102139.69;5203993;56;1139000;-75
2022/05/09 08:35:29;;;;;;;6.33;2.50;;;;;;;15.79;47.79;102135.11;5161410;57;1139080;-75
2022/05/09 08:41:06;;;;;;;8.00;2.27;;;;;;;15.96;47.23;102143.20;5200258;56;1139068;-74
2022/05/09 08:46:36;;;;;;;6.87;1.30;;;;;;;16.17;50.19;102144.27;5247973;56;1139270;-75
2022/05/09 08:52:20;;;;;;;5.50;2.20;;;;;;;16.42;46.55;102132.57;5247938;56;1138975;-75
2022/05/09 08:57:39;;;;;;;2.60;1.83;;;;;;;16.54;46.09;102135.63;4906311;59;1139216;-74
2022/05/09 09:03:04;;;;;;;4.07;1.87;;;;;;;16.68;45.98;102128.77;5225114;56;1136837;-74
2022/05/09 09:08:38;;;;;;;4.47;1.77;;;;;;;16.85;44.99;102124.30;5247166;56;1136931;-75
2022/05/09 09:14:11;;;;;;;2.43;1.63;;;;;;;16.94;41.81;102129.42;5248724;56;1137104;-75
2022/05/09 09:19:54;;;;;;;10.97;2.50;;;;;;;17.04;43.67;102133.05;5247398;56;1134978;-75
2022/05/09 09:25:31;;;;;;;3.23;1.40;;;;;;;17.20;42.28;102137.55;5218106;56;1141335;-75
2022/05/09 09:30:39;;;;;;;4.43;1.47;;;;;;;17.51;44.51;102132.41;5088855;57;1139078;-74
2022/05/09 09:35:59;;;;;;;3.10;1.30;;;;;;;17.74;43.43;102130.05;5161972;57;1138937;-75
2022/05/09 09:41:25;;;;;;;1.43;0.93;;;;;;;17.85;40.44;102130.53;5161728;57;1138953;-74
2022/05/09 09:46:31;;;;;;;4.50;1.40;;;;;;;17.97;37.97;102126.83;5161991;57;1139036;-75
2022/05/09 09:51:48;;;;;;;9.50;1.47;;;;;;;18.01;40.39;102110.03;5161932;57;1139143;-75
2022/05/09 09:56:54;;;;;;;6.83;1.80;;;;;;;18.24;40.88;102104.42;5161596;56;1138884;-75
2022/05/09 10:02:08;;;;;;;2.93;1.60;;;;;;;18.41;37.94;102116.38;5192341;56;1139018;-74
2022/05/09 10:07:20;;;;;;;6.17;1.77;;;;;;;18.48;38.00;102116.23;5201904;56;1139047;-76
2022/05/09 10:12:32;;;;;;;4.33;1.90;;;;;;;18.47;38.04;102105.64;5245980;56;1139022;-75
2022/05/09 10:17:37;;;;;;;10.53;2.07;;;;;;;18.55;39.88;102106.66;5242715;56;1139216;-76
2022/05/09 10:28:18;;;;;;;10.97;1.43;;;;;;;18.72;37.74;102105.73;5238006;56;1136984;-74
2022/05/09 10:33:33;;;;;;;2.23;0.90;;;;;;;18.74;38.19;102101.95;5156079;57;1139285;-74
2022/05/09 10:38:49;;;;;;;4.20;1.60;;;;;;;18.93;37.26;102098.02;5161729;56;1137200;-76
2022/05/09 10:44:34;;;;;;;2.70;1.32;;;;;;;19.04;37.61;102093.53;5242775;56;1136894;-75
2022/05/09 10:49:45;;;;;;;5.90;1.40;;;;;;;19.21;37.37;102078.13;5243114;56;1138967;-74
2022/05/09 10:54:56;;;;;;;;;;;;;;;19.28;38.18;102080.11;5220090;56;1138960;-75
2022/05/09 11:00:09;;;;;;;6.22;1.52;;;;;;;19.32;35.73;102076.67;5158639;57;976616;-75
2022/05/09 11:05:15;;;;;;;2.12;1.62;;;;;;;19.36;36.38;102073.23;5232527;56;1136856;-75
2022/05/09 11:10:38;;;;;;;6.20;1.67;;;;;;;19.48;36.67;102056.02;5242481;56;1139202;-75
2022/05/09 11:16:13;;;;;;;4.12;2.17;;;;;;;19.51;33.41;102055.28;5238246;56;1138986;-74
2022/05/09 11:21:46;;;;;;;3.92;2.42;;;;;;;19.44;33.32;102054.58;5242320;56;1139103;-74
2022/05/09 11:27:05;;;;;;;3.73;1.37;;;;;;;19.51;36.21;102031.62;5242675;56;1139078;-74
2022/05/09 11:32:32;;;;;;;2.50;1.37;;;;;;;19.57;35.36;102029.70;5242327;56;1139214;-74
2022/05/09 11:38:00;;;;;;;4.55;1.50;;;;;;;19.60;34.53;102020.88;5242392;56;1139289;-74
2022/05/09 11:43:46;;;;;;;3.35;1.65;;;;;;;19.73;36.00;102019.73;5160011;56;1138992;-75
2022/05/09 11:49:21;;;;;;;4.58;1.22;;;;;;;20.00;35.20;102006.45;5117249;57;1137058;-75
2022/05/09 11:54:33;;;;;;;5.60;1.45;;;;;;;20.16;35.61;102007.20;5172017;56;1136970;-74
2022/05/09 11:59:43;;;;;;;14.23;2.20;;;;;;;20.27;36.11;102006.52;5198006;56;1136887;-74
2022/05/09 12:04:50;;;;;;;3.87;1.17;;;;;;;20.38;34.69;102005.52;5154584;57;1136357;-75
2022/05/09 12:10:18;;;;;;;5.53;1.10;;;;;;;20.43;33.91;102005.09;5156017;57;1145841;-74
2022/05/09 12:15:33;;;;;;;4.55;1.37;;;;;;;20.53;33.38;102001.86;5163970;56;1138972;-74
2022/05/09 12:20:47;;;;;;;8.98;4.35;;;;;;;20.52;32.37;101991.60;5163712;57;1138974;-75
2022/05/09 12:26:03;;;;;;;3.92;1.65;;;;;;;20.58;31.96;101998.23;4995460;58;1139194;-75
2022/05/09 12:31:35;;;;;;;7.78;1.77;;;;;;;20.60;32.68;101990.38;4998308;59;1139225;-75
2022/05/09 12:36:41;;;;;;;79.65;61.33;;;;;;;20.71;32.17;101993.36;5069993;57;1138999;-75
2022/05/09 12:41:54;;;;;;;10.15;3.58;;;;;;;20.74;32.01;101986.35;5079490;58;1143104;-75
2022/05/09 12:47:10;;;;;;;9.83;1.65;;;;;;;20.91;32.92;101977.98;5079013;58;1141083;-74
2022/05/09 12:52:23;;;;;;;8.50;1.90;;;;;;;21.01;31.57;101968.00;5079671;58;1139012;-75
2022/05/09 12:57:38;;;;;;;4.35;1.02;;;;;;;21.06;30.88;101967.90;4979079;58;1138883;-75
2022/05/09 13:02:46;;;;;;;6.50;1.75;;;;;;;21.12;33.43;101949.44;4998172;59;1139041;-75
2022/05/09 13:08:01;;;;;;;3.37;1.20;;;;;;;21.19;29.09;101952.75;5079479;58;1139189;-75
2022/05/09 13:13:08;;;;;;;3.05;1.02;;;;;;;21.23;31.21;101931.77;4999549;58;1139012;-74
2022/05/09 13:18:19;;;;;;;5.90;1.40;;;;;;;21.22;28.80;101936.81;5158978;57;1139080;-75
2022/05/09 13:23:43;;;;;;;2.92;1.35;;;;;;;21.32;31.96;101933.52;5246843;56;1139282;-75
2022/05/09 13:28:56;;;;;;;2.70;1.57;;;;;;;21.43;29.41;101929.73;5246693;56;1136834;-75
2022/05/09 13:34:04;;;;;;;10.93;2.90;;;;;;;21.32;30.70;101916.03;5191147;56;1136923;-75
2022/05/09 13:39:12;;;;;;;2.70;1.10;;;;;;;21.39;31.08;101921.13;5181242;56;1139308;-74
2022/05/09 13:44:23;;;;;;;3.33;2.10;;;;;;;21.41;29.84;101912.39;5158615;56;1136897;-75
2022/05/09 13:49:31;;;;;;;6.92;1.60;;;;;;;21.35;29.84;101907.66;5075161;57;1136888;-76
2022/05/09 13:54:44;;;;;;;4.10;1.22;;;;;;;21.21;29.62;101892.06;5190875;56;1137112;-75
2022/05/09 13:59:57;;;;;;;3.40;1.62;;;;;;;21.17;29.36;101891.98;5166682;56;1136899;-76
2022/05/09 14:05:13;;;;;;;1.70;1.40;;;;;;;21.20;30.53;101884.48;5207019;56;1136967;-74
2022/05/09 14:10:41;;;;;;;26.82;2.52;;;;;;;21.38;31.00;101876.40;5254262;56;1139082;-75
2022/05/09 14:15:53;;;;;;;3.10;1.10;;;;;;;21.35;28.24;101875.36;5152333;56;1141074;-76
2022/05/09 14:21:07;;;;;;;7.30;1.00;;;;;;;21.21;29.99;101873.23;5199872;56;1138937;-75
2022/05/09 14:32:06;;;;;;;8.90;1.05;;;;;;;21.20;30.51;101861.62;5230760;56;1139024;-74
2022/05/09 14:37:33;;;;;;;8.55;1.20;;;;;;;21.31;29.50;101851.94;5193294;56;1138927;-75
2022/05/09 14:42:52;;;;;;;2.72;1.17;;;;;;;21.44;30.02;101858.75;5165628;56;1139019;-76
2022/05/09 14:48:17;;;;;;;14.30;1.87;;;;;;;21.61;29.40;101843.06;5200175;56;1139053;-76
2022/05/09 14:53:29;;;;;;;7.03;1.35;;;;;;;21.74;30.03;101845.67;5166099;56;1141101;-76
2022/05/09 14:58:42;;;;;;;19.60;2.04;;;;;;;21.86;29.79;101840.00;5156059;57;1139141;-75
2022/05/09 15:03:51;;;;;;;5.22;1.62;;;;;;;21.82;29.40;101837.30;5178599;56;1141051;-76
2022/05/09 15:08:57;;;;;;;2.85;2.40;;;;;;;21.83;28.80;101830.91;5225463;56;1136901;-75
2022/05/09 15:14:04;;;;;;;5.00;3.02;;;;;;;21.76;28.82;101830.20;5194258;56;1136929;-75
2022/05/09 15:19:13;;;;;;;4.75;1.82;;;;;;;21.71;28.34;101827.63;5187149;56;1136817;-76
2022/05/09 15:24:19;;;;;;;3.55;2.20;;;;;;;21.51;27.28;101824.84;5248196;56;1136898;-76
2022/05/09 15:29:26;;;;;;;5.76;2.40;;;;;;;21.29;27.48;101821.65;5188245;56;1136902;-74
2022/05/09 15:34:32;;;;;;;7.26;2.08;;;;;;;21.16;28.13;101817.14;5186448;56;1136416;-75
2022/05/09 15:39:44;;;;;;;7.08;1.87;;;;;;;21.07;27.89;101811.37;5177441;56;1136860;-76
2022/05/09 15:44:47;;;;;;;2.98;1.65;;;;;;;21.11;28.98;101806.50;5210687;56;1136901;-74
2022/05/09 15:49:55;;;;;;;3.83;3.42;;;;;;;21.15;27.96;101807.38;5248193;56;1136828;-76
2022/05/09 15:55:02;;;;;;;13.98;8.23;;;;;;;21.04;27.38;101811.17;5181850;56;1137098;-76
2022/05/09 16:00:12;;;;;;;4.30;3.05;;;;;;;20.94;28.43;101806.36;5182954;56;1138989;-74
2022/05/09 16:05:21;;;;;;;14.50;1.92;;;;;;;21.05;29.50;101799.91;5161244;57;1136886;-75
2022/05/09 16:15:50;;;;;;;7.30;1.70;;;;;;;21.15;28.98;101787.70;5202632;56;1138967;-74
2022/05/09 16:20:56;;;;;;;11.27;1.40;;;;;;;21.15;29.11;101791.23;5162021;57;1138911;-74
2022/05/09 16:26:06;;;;;;;9.80;2.10;;;;;;;21.13;29.04;101793.23;5152686;57;1141036;-76
2022/05/09 16:31:20;;;;;;;10.18;5.70;;;;;;;21.11;28.07;101787.66;5063497;58;1139227;-77
2022/05/09 16:36:24;;;;;;;11.68;6.58;;;;;;;20.98;28.11;101784.88;5028622;58;1141447;-76
2022/05/09 16:41:30;;;;;;;1.27;1.17;;;;;;;20.93;27.96;101783.16;5099207;57;1141163;-74
2022/05/09 16:46:36;;;;;;;5.37;2.45;;;;;;;20.78;27.55;101779.33;5128215;57;1139070;-75
2022/05/09 16:51:42;;;;;;;3.86;1.46;;;;;;;20.75;28.81;101779.66;5161225;57;1138972;-74
2022/05/09 16:56:48;;;;;;;8.83;4.50;;;;;;;20.63;28.25;101775.49;5103196;57;1138978;-75
2022/05/09 17:01:54;;;;;;;73.85;7.08;;;;;;;20.50;28.70;101768.31;5077466;58;1139131;-75
2022/05/09 17:07:00;;;;;;;3.52;1.45;;;;;;;20.44;28.34;101777.85;5098345;57;1141050;-74
2022/05/09 17:12:08;;;;;;;3.33;1.50;;;;;;;20.34;28.36;101777.86;5160323;57;1138745;-74
2022/05/09 17:17:13;;;;;;;8.18;1.62;;;;;;;20.21;28.47;101775.20;5149942;56;1139011;-75
2022/05/09 17:22:19;;;;;;;3.45;1.65;;;;;;;20.06;29.06;101776.20;5185904;56;1138942;-76
2022/05/09 17:27:30;;;;;;;5.10;2.25;;;;;;;19.91;29.03;101768.30;5035944;58;1139167;-75
2022/05/09 17:32:37;;;;;;;6.60;1.25;;;;;;;19.81;29.59;101772.89;5152904;56;1139056;-76
2022/05/09 17:37:43;;;;;;;4.28;2.22;;;;;;;19.75;30.13;101765.41;5154006;56;1139144;-73
2022/05/09 17:42:49;;;;;;;7.47;2.17;;;;;;;19.62;30.07;101767.95;5170054;56;1139109;-74
2022/05/09 17:47:55;;;;;;;10.58;5.12;;;;;;;19.47;30.55;101769.88;5212118;56;1139514;-74
2022/05/09 17:53:01;;;;;;;7.83;3.52;;;;;;;19.42;30.43;101776.16;5173683;56;1141071;-75
2022/05/09 17:58:07;;;;;;;10.48;3.75;;;;;;;19.35;30.87;101776.41;5131184;56;1138941;-76
2022/05/09 18:03:13;;;;;;;21.27;5.33;;;;;;;19.29;31.53;101776.48;5181253;56;1141754;-76
2022/05/09 18:08:18;;;;;;;22.85;5.60;;;;;;;19.21;31.83;101773.20;5195311;56;1141313;-77
2022/05/09 18:13:26;;;;;;;27.40;4.20;;;;;;;19.14;32.33;101777.93;5181688;56;1140993;-75
2022/05/09 18:18:36;;;;;;;15.08;3.83;;;;;;;19.00;32.81;101775.69;5184155;56;1141059;-75
2022/05/09 18:23:57;;;;;;;28.30;5.67;;;;;;;18.86;33.23;101775.15;5175204;56;1141103;-76
2022/05/09 18:29:03;;;;;;;12.30;3.95;;;;;;;18.71;33.49;101767.67;5157803;56;1141138;-74
2022/05/09 18:34:12;;;;;;;11.55;2.70;;;;;;;18.59;33.90;101773.67;5117745;57;1140982;-76
2022/05/09 18:39:23;;;;;;;38.07;4.00;;;;;;;18.53;34.54;101776.37;5087256;56;1141318;-73
2022/05/09 18:44:25;;;;;;;29.25;3.25;;;;;;;18.45;35.11;101784.28;5149431;56;1141288;-75
2022/05/09 18:54:56;;;;;;;38.92;3.92;;;;;;;17.99;35.97;101792.06;5122417;57;1138949;-73
2022/05/09 19:00:01;;;;;;;30.93;7.00;;;;;;;17.74;36.54;101786.19;5114242;57;1139256;-75
2022/05/09 19:05:08;;;;;;;45.60;6.27;;;;;;;17.64;37.14;101792.48;5143846;56;1139136;-74
2022/05/09 19:10:19;;;;;;;19.27;6.20;;;;;;;17.60;37.33;101789.19;5116011;56;1139197;-74
2022/05/09 19:15:25;;;;;;;45.40;5.85;;;;;;;17.54;37.72;101791.92;5149383;57;1139282;-75
2022/05/09 19:20:31;;;;;;;69.77;5.97;;;;;;;17.45;38.25;101791.85;5202757;56;1139261;-75
2022/05/09 19:25:40;;;;;;;44.50;6.63;;;;;;;17.37;38.82;101796.54;5205999;56;1139016;-74
2022/05/09 19:30:48;;;;;;;27.20;3.97;;;;;;;17.26;39.36;101790.42;5211837;56;1139202;-74
2022/05/09 19:35:55;;;;;;;60.87;13.80;;;;;;;17.17;39.85;101795.56;5185321;56;1138975;-76
2022/05/09 19:41:02;;;;;;;62.87;9.57;;;;;;;17.01;40.33;101793.83;5222351;56;1141017;-76
2022/05/09 19:46:10;;;;;;;30.15;5.72;;;;;;;16.71;40.64;101797.73;5163222;56;1139128;-74
2022/05/09 19:51:16;;;;;;;18.80;4.27;;;;;;;16.46;41.32;101802.89;5152730;57;1139302;-76
2022/05/09 19:56:22;;;;;;;19.30;3.60;;;;;;;16.24;41.62;101801.59;5155489;56;1136903;-74
2022/05/09 20:01:28;;;;;;;19.80;3.80;;;;;;;16.02;41.98;101800.67;5149267;56;1136851;-76
2022/05/09 20:06:34;;;;;;;11.93;3.50;;;;;;;15.89;42.36;101800.45;5105753;56;1141068;-76
2022/05/09 20:11:40;;;;;;;7.95;3.72;;;;;;;15.82;42.76;101801.41;5149239;56;1141230;-76
2022/05/09 20:16:46;;;;;;;9.03;3.20;;;;;;;15.76;43.20;101800.06;5169681;57;1139207;-76
2022/05/09 20:21:52;;;;;;;11.43;3.47;;;;;;;15.72;43.45;101809.30;5211992;56;1139199;-76
2022/05/09 20:32:23;;;;;;;11.00;3.60;;;;;;;15.48;43.98;101807.16;5219829;56;1138958;-74
2022/05/09 20:37:48;;;;;;;15.93;4.20;;;;;;;15.39;44.25;101801.22;5216844;55;1141045;-75
2022/05/09 20:42:52;;;;;;;7.93;4.17;;;;;;;15.37;44.79;101805.34;5150659;56;1141049;-74
2022/05/09 20:47:58;;;;;;;13.27;3.40;;;;;;;15.32;45.09;101806.65;5146393;56;1138997;-78
2022/05/09 20:53:04;;;;;;;5.77;3.00;;;;;;;15.14;45.29;101807.57;5157505;56;1141095;-73
2022/05/09 20:58:10;;;;;;;18.13;4.30;;;;;;;14.94;45.54;101813.10;5175855;56;1138925;-76
2022/05/09 21:03:17;;;;;;;10.20;2.97;;;;;;;14.84;45.89;101811.22;5140645;56;1141130;-75
2022/05/09 21:08:32;;;;;;;4.43;2.50;;;;;;;14.81;46.22;101812.33;5131944;57;1141129;-75
2022/05/09 21:13:34;;;;;;;4.53;2.87;;;;;;;14.75;46.36;101805.63;5146017;56;1139186;-75
2022/05/09 21:18:41;;;;;;;15.70;2.93;;;;;;;14.82;46.52;101814.00;5118921;56;1139020;-73
2022/05/09 21:23:52;;;;;;;12.27;4.23;;;;;;;14.83;46.61;101815.70;5027549;57;1141129;-75
2022/05/09 21:28:58;;;;;;;11.10;3.47;;;;;;;14.82;46.33;101816.66;5111332;57;1141131;-75
2022/05/09 21:34:09;;;;;;;17.97;4.13;;;;;;;14.75;46.04;101812.77;5112884;57;1141107;-75
2022/05/09 21:44:44;;;;;;;5.13;3.20;;;;;;;14.69;45.93;101815.40;5158110;56;1139010;-76
2022/05/09 21:49:50;;;;;;;12.13;3.77;;;;;;;14.50;45.66;101816.41;5199948;56;1138926;-74
2022/05/09 21:54:56;;;;;;;9.90;3.93;;;;;;;14.50;45.66;101816.41;5214024;56;1141128;-77
2022/05/09 22:00:02;;;;;;;11.10;3.60;;;;;;;14.49;46.03;101820.03;5103082;56;1139018;-76
2022/05/09 22:05:08;;;;;;;9.43;3.60;;;;;;;14.43;45.95;101816.00;5071919;57;1141134;-73
2022/05/09 22:10:14;;;;;;;12.13;3.80;;;;;;;14.37;46.06;101808.89;5071962;57;1138974;-74
2022/05/09 22:15:21;;;;;;;10.90;3.80;;;;;;;14.28;46.21;101810.42;5127538;57;1139288;-76
2022/05/09 22:20:27;;;;;;;9.27;3.30;;;;;;;14.27;46.43;101814.53;5152041;56;1138986;-75
2022/05/09 22:25:33;;;;;;;8.70;3.33;;;;;;;14.26;46.84;101800.85;5156371;56;1136990;-76
2022/05/09 22:30:39;;;;;;;12.33;3.97;;;;;;;14.24;47.07;101802.29;5139620;56;1137231;-74
2022/05/09 22:35:45;;;;;;;9.33;3.27;;;;;;;14.14;46.96;101799.94;5118389;56;1139042;-75
2022/05/09 22:40:52;;;;;;;12.60;4.30;;;;;;;14.03;47.21;101792.73;5110593;58;1136931;-76
2022/05/09 22:45:58;;;;;;;8.53;4.10;;;;;;;13.95;47.58;101788.91;5110659;57;1138992;-74
2022/05/09 22:51:03;;;;;;;8.83;4.57;;;;;;;13.93;47.91;101790.83;5110551;57;1136897;-73
2022/05/09 22:56:09;;;;;;;7.17;3.93;;;;;;;13.84;48.18;101779.05;5125433;57;1137067;-74
2022/05/09 23:01:30;;;;;;;12.23;5.00;;;;;;;13.80;48.44;101779.36;5042138;58;1136943;-74
2022/05/09 23:06:37;;;;;;;36.70;17.73;;;;;;;13.67;48.62;101774.92;5137160;57;1138995;-74
2022/05/09 23:11:43;;;;;;;16.83;7.83;;;;;;;13.45;48.74;101775.19;4961804;59;1141082;-75
2022/05/09 23:16:49;;;;;;;30.10;10.60;;;;;;;13.27;49.28;101769.37;5125168;56;1138989;-73
2022/05/09 23:21:56;;;;;;;17.00;8.70;;;;;;;12.97;50.11;101762.51;5058145;57;1141140;-76
2022/05/09 23:27:01;;;;;;;14.50;7.70;;;;;;;12.97;50.11;101762.51;5058227;58;1136930;-77
2022/05/09 23:32:08;;;;;;;12.73;6.87;;;;;;;12.91;50.42;101759.41;4962773;59;1137179;-75
2022/05/09 23:37:14;;;;;;;13.50;5.57;;;;;;;12.85;50.86;101749.19;5156682;57;21171;-74
2022/05/09 23:42:24;;;;;;;16.67;6.73;;;;;;;12.78;50.92;101743.94;5137053;57;1136861;-76
2022/05/09 23:47:31;;;;;;;14.83;6.33;;;;;;;12.77;51.23;101740.91;5136972;57;1141340;-75
2022/05/09 23:52:37;;;;;;;20.00;5.53;;;;;;;12.74;51.54;101737.12;5137008;57;1141310;-75
2022/05/09 23:57:43;;;;;;;17.40;4.70;;;;;;;12.69;51.58;101734.29;5216107;56;1141093;-75
